createdAt,value
2022-08-17T00:02:26.077Z,52.15
2022-08-17T00:04:55.262Z,52.46
2022-08-17T00:07:23.051Z,53.15
2022-08-17T00:09:50.489Z,52.92
2022-08-17T00:12:43.611Z,52.16
2022-08-17T00:15:06.146Z,52.37
2022-08-17T00:17:37.789Z,52.78
2022-08-17T00:20:06.005Z,53.20
2022-08-17T00:22:36.328Z,53.35
2022-08-17T00:25:05.697Z,53.48
2022-08-17T00:27:33.793Z,52.88
2022-08-17T00:30:01.097Z,53.20
2022-08-17T00:33:14.905Z,53.54
2022-08-17T00:35:17.778Z,54.14
2022-08-17T00:37:45.224Z,54.57
2022-08-17T00:40:14.174Z,54.92
2022-08-17T00:42:42.383Z,55.33
2022-08-17T00:45:11.167Z,55.70
2022-08-17T00:47:38.628Z,55.50
2022-08-17T00:50:08.018Z,56.03
2022-08-17T00:52:37.342Z,56.33
2022-08-17T00:55:06.036Z,56.67
2022-08-17T00:57:41.835Z,56.82
2022-08-17T01:00:26.852Z,56.77
2022-08-17T01:03:16.977Z,56.64
2022-08-17T01:05:44.404Z,56.49
2022-08-17T01:08:13.623Z,56.44
2022-08-17T01:10:58.624Z,56.50
2022-08-17T01:13:41.490Z,55.94
2022-08-17T01:16:18.511Z,56.69
2022-08-17T01:18:47.376Z,56.94
2022-08-17T01:21:39.701Z,56.29
2022-08-17T01:24:07.297Z,56.78
2022-08-17T01:26:34.729Z,56.80
2022-08-17T01:29:02.743Z,56.76
2022-08-17T01:31:32.227Z,56.40
2022-08-17T01:34:00.629Z,56.89
2022-08-17T01:36:29.388Z,57.40
2022-08-17T01:38:56.883Z,58.28
2022-08-17T01:41:24.277Z,58.80
2022-08-17T01:43:54.681Z,59.10
2022-08-17T01:46:26.637Z,58.85
2022-08-17T01:48:54.521Z,58.45
2022-08-17T01:51:22.092Z,57.92
2022-08-17T01:53:51.736Z,57.78
2022-08-17T01:56:20.568Z,57.65
2022-08-17T01:58:47.938Z,57.51
2022-08-17T02:01:19.067Z,57.74
2022-08-17T02:03:54.572Z,57.76
2022-08-17T02:06:28.407Z,57.91
2022-08-17T02:09:02.301Z,57.54
2022-08-17T02:11:32.537Z,57.75
2022-08-17T02:14:03.182Z,57.87
2022-08-17T02:16:37.806Z,58.08
2022-08-17T02:19:08.199Z,58.43
2022-08-17T02:21:36.778Z,58.50
2022-08-17T02:24:05.583Z,58.51
2022-08-17T02:26:33.027Z,57.42
2022-08-17T02:29:00.387Z,57.91
2022-08-17T02:31:27.805Z,57.79
2022-08-17T02:34:04.175Z,57.69
2022-08-17T02:36:35.710Z,57.71
2022-08-17T02:39:05.522Z,57.18
2022-08-17T02:41:33.142Z,57.19
2022-08-17T02:44:00.589Z,57.73
2022-08-17T02:46:28.448Z,59.18
2022-08-17T02:48:55.900Z,60.61
2022-08-17T02:51:23.458Z,61.62
2022-08-17T02:53:50.797Z,61.12
2022-08-17T02:56:18.401Z,60.89
2022-08-17T02:58:46.455Z,60.72
2022-08-17T03:01:13.884Z,61.07
2022-08-17T03:03:41.321Z,60.93
2022-08-17T03:06:09.092Z,61.61
2022-08-17T03:08:37.710Z,62.01
2022-08-17T03:11:05.098Z,61.83
2022-08-17T03:13:32.594Z,62.24
2022-08-17T03:16:00.067Z,62.53
2022-08-17T03:18:28.238Z,62.98
2022-08-17T03:20:58.032Z,63.73
2022-08-17T03:23:25.751Z,64.07
2022-08-17T03:25:53.952Z,64.53
2022-08-17T03:28:22.128Z,64.38
2022-08-17T03:30:51.365Z,64.56
2022-08-17T03:33:19.191Z,65.13
2022-08-17T03:35:46.763Z,64.97
2022-08-17T03:38:15.892Z,64.63
2022-08-17T03:40:57.766Z,64.88
2022-08-17T03:43:28.552Z,64.75
2022-08-17T03:46:28.979Z,64.61
2022-08-17T03:49:22.180Z,63.87
2022-08-17T03:52:08.148Z,63.33
2022-08-17T03:54:54.081Z,63.23
2022-08-17T03:57:21.532Z,62.99
2022-08-17T03:59:49.639Z,63.01
2022-08-17T04:02:25.822Z,62.55
2022-08-17T04:04:53.985Z,62.51
2022-08-17T04:07:22.459Z,62.66
2022-08-17T04:09:49.818Z,62.75
2022-08-17T04:12:18.602Z,62.61
2022-08-17T04:14:53.637Z,62.40
2022-08-17T04:17:28.960Z,62.07
2022-08-17T04:19:56.597Z,62.03
2022-08-17T04:22:31.818Z,62.02
2022-08-17T04:25:19.588Z,61.83
2022-08-17T04:27:48.980Z,61.80
2022-08-17T04:30:16.359Z,61.79
2022-08-17T04:33:09.943Z,61.56
2022-08-17T04:35:48.278Z,61.36
2022-08-17T04:38:20.013Z,61.77
2022-08-17T04:41:06.646Z,63.07
2022-08-17T04:43:34.609Z,63.95
2022-08-17T04:46:04.836Z,63.45
2022-08-17T04:48:36.051Z,63.39
2022-08-17T04:51:13.462Z,62.34
2022-08-17T04:53:41.859Z,62.23
2022-08-17T04:56:16.026Z,61.89
2022-08-17T04:58:46.563Z,59.87
2022-08-17T05:01:14.798Z,60.29
2022-08-17T05:03:43.073Z,60.79
2022-08-17T05:06:10.692Z,60.91
2022-08-17T05:08:38.079Z,60.56
2022-08-17T05:11:05.622Z,60.21
2022-08-17T05:13:33.230Z,59.95
2022-08-17T05:16:02.096Z,60.03
2022-08-17T05:18:29.713Z,59.32
2022-08-17T05:20:57.176Z,59.60
2022-08-17T05:23:26.160Z,59.67
2022-08-17T05:25:55.643Z,59.30
2022-08-17T05:28:27.580Z,59.43
2022-08-17T05:30:58.217Z,59.20
2022-08-17T05:33:28.183Z,58.88
2022-08-17T05:35:56.614Z,58.67
2022-08-17T05:38:25.051Z,58.63
2022-08-17T05:40:53.739Z,58.17
2022-08-17T05:43:24.930Z,58.29
2022-08-17T05:46:31.383Z,57.75
2022-08-17T05:49:03.922Z,57.71
2022-08-17T05:51:34.406Z,57.78
2022-08-17T05:54:13.881Z,57.44
2022-08-17T05:57:02.955Z,56.75
2022-08-17T05:59:41.582Z,56.61
2022-08-17T06:02:22.522Z,56.41
2022-08-17T06:04:52.895Z,56.05
2022-08-17T06:07:39.933Z,56.40
2022-08-17T06:10:15.087Z,56.49
2022-08-17T06:13:00.763Z,56.53
2022-08-17T06:15:37.037Z,56.32
2022-08-17T06:18:06.289Z,55.89
2022-08-17T06:20:49.521Z,55.59
2022-08-17T06:23:38.300Z,56.02
2022-08-17T06:26:17.077Z,56.05
2022-08-17T06:28:50.639Z,56.06
2022-08-17T06:31:31.311Z,55.92
2022-08-17T06:34:00.659Z,55.62
2022-08-17T06:36:43.198Z,55.03
2022-08-17T06:39:41.120Z,55.50
2022-08-17T06:43:02.173Z,55.39
2022-08-17T06:45:14.585Z,54.94
2022-08-17T06:47:58.458Z,51.07
2022-08-17T06:50:49.503Z,45.53
2022-08-17T06:53:31.901Z,42.55
2022-08-17T06:56:05.656Z,40.17
2022-08-17T06:58:33.745Z,38.29
2022-08-17T07:01:11.100Z,36.70
2022-08-17T07:03:46.559Z,36.46
2022-08-17T07:06:23.754Z,36.68
2022-08-17T07:09:15.082Z,36.00
2022-08-17T07:11:53.850Z,35.44
2022-08-17T07:14:27.825Z,35.99
2022-08-17T07:16:56.886Z,35.73
2022-08-17T07:19:26.870Z,34.65
2022-08-17T07:22:05.553Z,34.93
2022-08-17T07:24:48.179Z,34.53
2022-08-17T07:27:24.269Z,33.18
2022-08-17T07:29:53.869Z,34.35
2022-08-17T07:32:34.473Z,33.52
2022-08-17T07:35:04.700Z,33.17
2022-08-17T07:37:33.577Z,32.62
2022-08-17T07:40:17.245Z,31.98
2022-08-17T07:43:05.123Z,30.85
2022-08-17T07:46:07.744Z,31.29
2022-08-17T07:48:36.792Z,30.21
2022-08-17T07:51:25.328Z,30.55
2022-08-17T07:53:54.883Z,30.42
2022-08-17T07:56:38.121Z,32.18
2022-08-17T07:59:14.461Z,31.99
2022-08-17T08:01:42.534Z,31.62
2022-08-17T08:04:59.369Z,29.96
2022-08-17T08:07:27.431Z,30.89
2022-08-17T08:10:02.763Z,31.95
2022-08-17T08:12:40.408Z,30.64
2022-08-17T08:15:09.833Z,29.54
2022-08-17T08:17:55.555Z,28.97
2022-08-17T08:20:51.407Z,28.71
2022-08-17T08:23:37.223Z,29.47
2022-08-17T08:26:23.289Z,30.83
2022-08-17T08:29:01.578Z,30.26
2022-08-17T08:31:44.197Z,29.05
2022-08-17T08:34:44.517Z,28.45
2022-08-17T08:37:32.856Z,29.25
2022-08-17T08:40:13.484Z,28.88
2022-08-17T08:42:46.854Z,27.52
2022-08-17T08:45:20.321Z,27.52
2022-08-17T08:47:53.883Z,29.43
2022-08-17T08:50:38.529Z,29.43
2022-08-17T08:53:21.982Z,30.55
2022-08-17T08:55:55.543Z,32.02
2022-08-17T08:58:31.398Z,33.82
2022-08-17T09:01:19.039Z,34.68
2022-08-17T09:03:53.565Z,35.22
2022-08-17T09:06:40.097Z,35.19
2022-08-17T09:09:10.690Z,35.15
2022-08-17T09:12:02.874Z,36.11
2022-08-17T09:14:44.935Z,35.69
2022-08-17T09:17:23.092Z,36.05
2022-08-17T09:20:34.049Z,35.90
2022-08-17T09:23:32.800Z,36.17
2022-08-17T09:26:06.561Z,35.35
2022-08-17T09:28:38.473Z,34.91
2022-08-17T09:31:12.021Z,35.20
2022-08-17T09:33:42.801Z,35.75
2022-08-17T09:36:34.853Z,34.92
2022-08-17T09:39:06.535Z,35.10
2022-08-17T09:41:40.293Z,35.07
2022-08-17T09:44:38.025Z,34.93
2022-08-17T09:47:30.686Z,34.70
2022-08-17T09:50:09.785Z,34.86
2022-08-17T09:52:37.204Z,34.27
2022-08-17T09:55:04.978Z,34.40
2022-08-17T09:57:47.652Z,33.70
2022-08-17T10:00:17.365Z,33.79
2022-08-17T10:03:05.239Z,33.48
2022-08-17T10:06:08.506Z,33.45
2022-08-17T10:09:09.850Z,33.48
2022-08-17T10:12:20.641Z,33.43
2022-08-17T10:14:55.181Z,32.52
2022-08-17T10:17:41.176Z,32.43
2022-08-17T10:20:21.942Z,32.84
2022-08-17T10:23:11.978Z,32.41
2022-08-17T10:26:02.789Z,32.47
2022-08-17T10:28:32.721Z,31.27
2022-08-17T10:31:30.881Z,30.97
2022-08-17T10:34:07.384Z,31.18
2022-08-17T10:36:50.814Z,31.16
2022-08-17T10:39:32.717Z,31.01
2022-08-17T10:42:04.554Z,30.34
2022-08-17T10:44:50.078Z,30.40
2022-08-17T10:47:18.486Z,30.50
2022-08-17T10:49:56.303Z,30.31
2022-08-17T10:52:24.838Z,30.18
2022-08-17T10:54:58.787Z,30.04
2022-08-17T10:57:29.655Z,30.08
2022-08-17T10:59:58.000Z,29.63
2022-08-17T11:02:31.673Z,29.01
2022-08-17T11:05:06.425Z,29.05
2022-08-17T11:07:33.737Z,28.91
2022-08-17T11:10:13.637Z,29.12
2022-08-17T11:13:01.863Z,29.52
2022-08-17T11:15:31.919Z,28.99
2022-08-17T11:18:11.514Z,28.86
2022-08-17T11:21:06.893Z,28.69
2022-08-17T11:23:41.100Z,28.24
2022-08-17T11:26:26.216Z,27.98
2022-08-17T11:28:58.982Z,28.86
2022-08-17T11:31:39.913Z,28.72
2022-08-17T11:34:23.794Z,29.00
2022-08-17T11:37:18.344Z,28.38
2022-08-17T11:40:30.224Z,28.91
2022-08-17T11:43:15.942Z,28.34
2022-08-17T11:45:52.391Z,28.12
2022-08-17T11:49:11.982Z,28.07
2022-08-17T11:52:05.266Z,27.68
2022-08-17T11:54:41.971Z,27.49
2022-08-17T11:57:41.585Z,27.54
2022-08-17T12:00:30.244Z,27.77
2022-08-17T12:03:22.723Z,28.61
2022-08-17T12:05:50.659Z,28.39
2022-08-17T12:08:20.143Z,28.25
2022-08-17T12:10:56.690Z,27.92
2022-08-17T12:13:27.435Z,28.20
2022-08-17T12:16:04.527Z,27.26
2022-08-17T12:18:35.834Z,27.60
2022-08-17T12:21:24.364Z,28.14
2022-08-17T12:24:00.700Z,27.73
2022-08-17T12:26:33.556Z,27.74
2022-08-17T12:29:06.207Z,27.31
2022-08-17T12:31:48.255Z,27.18
2022-08-17T12:34:42.311Z,27.39
2022-08-17T12:37:18.760Z,27.13
2022-08-17T12:39:57.515Z,26.90
2022-08-17T12:42:29.576Z,26.51
2022-08-17T12:44:57.705Z,26.13
2022-08-17T12:47:25.167Z,26.41
2022-08-17T12:50:05.873Z,26.88
2022-08-17T12:52:33.454Z,26.72
2022-08-17T12:55:02.794Z,26.99
2022-08-17T12:57:33.562Z,27.04
2022-08-17T13:00:22.639Z,27.08
2022-08-17T13:02:52.571Z,26.45
2022-08-17T13:05:37.222Z,27.01
2022-08-17T13:08:16.886Z,26.51
2022-08-17T13:10:45.447Z,26.77
2022-08-17T13:13:22.782Z,26.85
2022-08-17T13:16:04.496Z,26.59
2022-08-17T13:18:50.967Z,26.30
2022-08-17T13:21:26.977Z,26.50
2022-08-17T13:24:04.751Z,26.31
2022-08-17T13:26:39.393Z,25.95
2022-08-17T13:29:36.001Z,25.93
2022-08-17T13:32:13.613Z,26.02
2022-08-17T13:35:12.115Z,25.72
2022-08-17T13:37:42.608Z,26.05
2022-08-17T13:40:10.439Z,25.54
2022-08-17T13:42:52.282Z,25.84
2022-08-17T13:45:36.053Z,25.83
2022-08-17T13:48:16.617Z,25.59
2022-08-17T13:50:57.163Z,25.69
2022-08-17T13:53:33.871Z,25.73
2022-08-17T13:56:31.748Z,25.75
2022-08-17T13:59:00.462Z,25.92
2022-08-17T14:01:42.197Z,25.63
2022-08-17T14:04:16.413Z,25.72
2022-08-17T14:06:53.417Z,25.28
2022-08-17T14:09:24.230Z,25.46
2022-08-17T14:11:51.756Z,25.40
2022-08-17T14:14:19.177Z,25.78
2022-08-17T14:16:46.685Z,25.50
2022-08-17T14:19:14.357Z,25.56
2022-08-17T14:21:43.091Z,25.36
2022-08-17T14:24:21.869Z,24.98
2022-08-17T14:26:50.107Z,24.52
2022-08-17T14:29:17.481Z,24.68
2022-08-17T14:31:53.474Z,24.79
2022-08-17T14:34:23.355Z,25.01
2022-08-17T14:36:51.487Z,24.77
2022-08-17T14:39:19.294Z,25.14
2022-08-17T14:41:47.416Z,25.72
2022-08-17T14:44:16.607Z,25.69
2022-08-17T14:46:45.043Z,26.12
2022-08-17T14:49:13.974Z,26.45
2022-08-17T14:51:44.786Z,26.22
2022-08-17T14:54:29.401Z,26.48
2022-08-17T14:57:22.204Z,26.24
2022-08-17T14:59:55.510Z,26.18
2022-08-17T15:02:30.916Z,25.84
2022-08-17T15:05:04.618Z,25.47
2022-08-17T15:07:32.864Z,25.81
2022-08-17T15:10:03.008Z,25.65
2022-08-17T15:12:35.445Z,25.69
2022-08-17T15:15:06.748Z,25.54
2022-08-17T15:17:44.662Z,25.90
2022-08-17T15:20:16.217Z,26.31
2022-08-17T15:22:44.212Z,26.11
2022-08-17T15:25:11.691Z,26.27
2022-08-17T15:27:39.199Z,26.04
2022-08-17T15:30:07.196Z,26.68
2022-08-17T15:32:36.655Z,26.66
2022-08-17T15:35:05.192Z,26.49
2022-08-17T15:37:32.549Z,26.32
2022-08-17T15:40:02.793Z,26.02
2022-08-17T15:42:30.532Z,26.20
2022-08-17T15:44:58.459Z,26.16
2022-08-17T15:47:26.450Z,26.30
2022-08-17T15:49:59.446Z,26.18
2022-08-17T15:52:28.443Z,27.25
2022-08-17T15:55:00.220Z,27.64
2022-08-17T15:57:27.779Z,28.09
2022-08-17T15:59:58.897Z,27.93
2022-08-17T16:03:31.993Z,27.80
2022-08-17T16:05:19.920Z,28.01
2022-08-17T16:07:48.094Z,27.71
2022-08-17T16:10:19.036Z,27.61
2022-08-17T16:12:48.018Z,27.49
2022-08-17T16:15:16.366Z,27.83
2022-08-17T16:17:43.762Z,28.07
2022-08-17T16:20:20.456Z,28.04
2022-08-17T16:22:48.988Z,28.09
2022-08-17T16:25:18.992Z,28.18
2022-08-17T16:27:47.422Z,28.05
2022-08-17T16:30:17.742Z,28.00
2022-08-17T16:32:45.689Z,27.74
2022-08-17T16:35:17.434Z,27.78
2022-08-17T16:37:45.701Z,27.92
2022-08-17T16:40:14.589Z,27.89
2022-08-17T16:42:43.778Z,28.05
2022-08-17T16:45:19.248Z,28.44
2022-08-17T16:47:47.185Z,28.54
2022-08-17T16:50:15.423Z,28.40
2022-08-17T16:52:42.891Z,28.68
2022-08-17T16:55:10.774Z,28.68
2022-08-17T16:57:47.263Z,28.61
2022-08-17T17:00:17.926Z,28.63
2022-08-17T17:02:47.568Z,28.99
2022-08-17T17:05:30.428Z,28.84
2022-08-17T17:08:09.444Z,29.16
2022-08-17T17:10:44.998Z,29.28
2022-08-17T17:13:26.522Z,29.07
2022-08-17T17:16:03.536Z,29.47
2022-08-17T17:18:56.211Z,29.68
2022-08-17T17:21:25.635Z,29.88
2022-08-17T17:23:59.920Z,29.87
2022-08-17T17:26:39.948Z,30.01
2022-08-17T17:29:48.736Z,30.21
2022-08-17T17:32:41.775Z,30.28
2022-08-17T17:35:23.349Z,30.49
2022-08-17T17:37:51.159Z,30.96
2022-08-17T17:40:23.855Z,30.94
2022-08-17T17:42:55.350Z,31.31
2022-08-17T17:45:24.370Z,31.60
2022-08-17T17:47:52.973Z,31.91
2022-08-17T17:50:21.731Z,32.14
2022-08-17T17:53:04.954Z,32.28
2022-08-17T17:55:54.909Z,32.55
2022-08-17T17:58:39.695Z,32.55
2022-08-17T18:01:22.499Z,32.84
2022-08-17T18:04:20.982Z,33.23
2022-08-17T18:06:51.645Z,33.49
2022-08-17T18:09:57.701Z,33.48
2022-08-17T18:12:46.179Z,34.08
2022-08-17T18:15:27.486Z,34.46
2022-08-17T18:18:13.661Z,34.38
2022-08-17T18:20:46.509Z,34.51
2022-08-17T18:23:27.042Z,35.32
2022-08-17T18:25:56.075Z,35.66
2022-08-17T18:28:28.523Z,35.28
2022-08-17T18:31:19.045Z,35.46
2022-08-17T18:33:48.570Z,36.24
2022-08-17T18:36:33.068Z,36.53
2022-08-17T18:39:12.667Z,36.57
2022-08-17T18:41:42.374Z,36.47
2022-08-17T18:44:29.440Z,36.72
2022-08-17T18:47:05.952Z,37.41
2022-08-17T18:49:33.559Z,37.64
2022-08-17T18:52:14.962Z,37.90
2022-08-17T18:55:11.972Z,38.30
2022-08-17T18:57:44.718Z,38.11
2022-08-17T19:00:12.803Z,38.12
2022-08-17T19:03:18.917Z,38.89
2022-08-17T19:05:52.701Z,38.90
2022-08-17T19:08:29.128Z,38.84
2022-08-17T19:11:04.016Z,39.57
2022-08-17T19:13:37.588Z,39.88
2022-08-17T19:16:17.753Z,40.26
2022-08-17T19:19:08.189Z,40.11
2022-08-17T19:21:59.129Z,39.61
2022-08-17T19:24:28.169Z,39.81
2022-08-17T19:26:58.931Z,39.10
2022-08-17T19:29:37.801Z,39.09
2022-08-17T19:32:07.191Z,39.66
2022-08-17T19:34:35.453Z,40.64
2022-08-17T19:37:21.186Z,40.55
2022-08-17T19:40:24.426Z,39.93
2022-08-17T19:43:28.355Z,39.78
2022-08-17T19:45:59.924Z,39.53
2022-08-17T19:48:39.461Z,39.97
2022-08-17T19:51:06.809Z,40.19
2022-08-17T19:54:09.957Z,39.97
2022-08-17T19:56:49.782Z,40.51
2022-08-17T19:59:29.265Z,40.60
2022-08-17T20:02:24.835Z,40.42
2022-08-17T20:04:52.233Z,40.44
2022-08-17T20:07:22.653Z,40.28
2022-08-17T20:09:56.718Z,40.76
2022-08-17T20:12:26.297Z,41.39
2022-08-17T20:14:57.430Z,41.15
2022-08-17T20:17:30.992Z,41.18
2022-08-17T20:20:20.244Z,41.12
2022-08-17T20:22:55.686Z,41.26
2022-08-17T20:25:35.544Z,41.86
2022-08-17T20:28:30.650Z,40.76
2022-08-17T20:30:58.246Z,40.24
2022-08-17T20:33:32.610Z,40.22
2022-08-17T20:36:17.964Z,40.82
2022-08-17T20:38:52.403Z,40.93
2022-08-17T20:41:24.980Z,41.09
2022-08-17T20:43:59.049Z,41.43
2022-08-17T20:46:29.395Z,41.90
2022-08-17T20:49:08.846Z,42.30
2022-08-17T20:52:00.674Z,42.40
2022-08-17T20:54:41.859Z,43.01
2022-08-17T20:57:14.293Z,43.66
2022-08-17T21:00:14.631Z,43.60
2022-08-17T21:02:44.673Z,43.68
2022-08-17T21:05:35.278Z,43.93
2022-08-17T21:08:16.646Z,44.00
2022-08-17T21:10:45.636Z,43.88
2022-08-17T21:13:13.900Z,44.00
2022-08-17T21:15:54.110Z,44.10
2022-08-17T21:18:39.667Z,44.22
2022-08-17T21:21:22.125Z,44.56
2022-08-17T21:24:08.294Z,44.42
2022-08-17T21:26:56.990Z,44.56
2022-08-17T21:29:32.444Z,44.92
2022-08-17T21:32:05.309Z,44.63
2022-08-17T21:34:33.622Z,44.70
2022-08-17T21:37:23.495Z,44.98
2022-08-17T21:39:52.747Z,45.17
2022-08-17T21:42:29.541Z,45.32
2022-08-17T21:45:08.330Z,45.59
2022-08-17T21:47:35.687Z,45.99
2022-08-17T21:50:18.916Z,46.04
2022-08-17T21:52:46.630Z,46.16
2022-08-17T21:55:30.412Z,45.75
2022-08-17T21:58:13.363Z,46.18
2022-08-17T22:00:44.645Z,46.31
2022-08-17T22:03:23.293Z,46.34
2022-08-17T22:05:51.645Z,46.22
2022-08-17T22:08:23.855Z,45.86
2022-08-17T22:10:51.578Z,45.73
2022-08-17T22:13:23.471Z,45.99
2022-08-17T22:16:15.614Z,46.37
2022-08-17T22:18:58.135Z,46.15
2022-08-17T22:21:25.736Z,45.95
2022-08-17T22:24:04.685Z,46.15
2022-08-17T22:26:59.393Z,46.36
2022-08-17T22:29:57.161Z,46.79
2022-08-17T22:32:37.449Z,46.54
2022-08-17T22:35:42.345Z,46.80
2022-08-17T22:38:36.154Z,46.86
2022-08-17T22:41:42.548Z,46.94
2022-08-17T22:44:24.848Z,47.19
2022-08-17T22:47:11.115Z,47.22
2022-08-17T22:49:53.607Z,47.59
2022-08-17T22:52:32.453Z,47.53
2022-08-17T22:55:33.498Z,47.74
2022-08-17T22:58:19.798Z,48.04
2022-08-17T23:00:48.648Z,48.43
2022-08-17T23:03:20.364Z,48.78
2022-08-17T23:06:03.582Z,48.62
2022-08-17T23:08:31.563Z,48.80
2022-08-17T23:11:00.534Z,48.70
2022-08-17T23:13:28.196Z,48.93
2022-08-17T23:15:55.978Z,49.26
2022-08-17T23:18:23.614Z,49.42
2022-08-17T23:20:51.108Z,49.54
2022-08-17T23:23:23.404Z,49.47
2022-08-17T23:25:51.148Z,49.60
2022-08-17T23:28:18.471Z,49.83
2022-08-17T23:30:48.584Z,49.65
2022-08-17T23:33:21.633Z,50.21
2022-08-17T23:35:48.964Z,50.56
2022-08-17T23:38:16.322Z,50.81
2022-08-17T23:40:43.605Z,51.05
2022-08-17T23:43:23.521Z,50.40
2022-08-17T23:45:54.302Z,50.72
2022-08-17T23:48:33.021Z,50.31
2022-08-17T23:51:06.022Z,50.55
2022-08-17T23:53:34.565Z,50.30
2022-08-17T23:56:03.984Z,50.20
2022-08-17T23:58:42.524Z,51.03
